Terminal Aerodrome Forecast
Issued by NWS Jackson, MS

Home | Current Version | Previous Version | Text Only | Print | Product List | Glossary On
Versions: 1 2 3 4 5 6 7 8 9 10 11 12 13 14 15 16 17 18 19 20 21 22
000
FTUS44 KJAN 031720
TAFHBG
TAF
KHBG 031720Z 0318/0418 36008KT P6SM BKN020 BKN250
     FM040000 33004KT P6SM BKN050
     FM041100 32003KT 3SM BR OVC007
     FM041430 33008KT P6SM SCT015 SCT250=

USA.gov is the U.S. government's official web portal to all federal, state and local government web resources and services.